Time;durP1;ratioP1;P1;durP2;ratioP2;P2;SDS_P1;SDS_P2;PMS_P1;PMS_P2;Temp;Humidity;BMP_temperature;BMP_pressure;BME280_temperature;BME280_humidity;BME280_pressure;Samples;Min_cycle;Max_cycle;Signal;HPM_P1;HPM_P2
2021/04/22 00:00:20;;;;;;;6.07;1.33;;;15.70;60.30;;;;;;5012289;28;20093;-65
2021/04/22 00:02:45;;;;;;;5.18;1.60;;;15.70;60.40;;;;;;4993142;28;20117;-65
2021/04/22 00:05:31;;;;;;;8.18;1.98;;;15.70;60.40;;;;;;5013744;28;20440;-65
2021/04/22 00:07:58;;;;;;;4.82;1.20;;;15.70;60.50;;;;;;5013638;28;20407;-66
2021/04/22 00:10:32;;;;;;;4.65;1.23;;;15.70;60.40;;;;;;5024937;28;20037;-66
2021/04/22 00:12:57;;;;;;;5.57;1.45;;;15.70;60.40;;;;;;5032186;28;20132;-65
2021/04/22 00:15:23;;;;;;;5.50;1.50;;;15.70;60.40;;;;;;5032894;28;20068;-65
2021/04/22 00:17:53;;;;;;;5.70;1.27;;;15.70;60.30;;;;;;5016917;28;20029;-67
2021/04/22 00:20:19;;;;;;;5.95;1.67;;;15.60;60.80;;;;;;5011647;28;20109;-65
2021/04/22 00:22:45;;;;;;;6.45;1.75;;;15.60;60.30;;;;;;5017779;28;20761;-66
2021/04/22 00:25:12;;;;;;;3.45;1.10;;;15.60;60.30;;;;;;5012272;28;20104;-65
2021/04/22 00:27:37;;;;;;;6.90;1.50;;;15.60;60.30;;;;;;5012060;28;20030;-66
2021/04/22 00:30:06;;;;;;;5.32;1.80;;;15.60;60.30;;;;;;5013353;28;20037;-65
2021/04/22 00:32:32;;;;;;;5.93;1.77;;;15.70;60.30;;;;;;5013449;28;20075;-67
2021/04/22 00:34:57;;;;;;;4.47;1.50;;;15.60;60.20;;;;;;5012937;28;20030;-66
2021/04/22 00:37:23;;;;;;;5.07;1.45;;;15.60;60.30;;;;;;5013210;28;20022;-65
2021/04/22 00:39:48;;;;;;;5.45;1.67;;;15.60;60.40;;;;;;5012215;28;20479;-67
2021/04/22 00:42:14;;;;;;;5.70;1.70;;;15.60;60.20;;;;;;5010974;28;20021;-65
2021/04/22 00:44:39;;;;;;;7.05;2.05;;;15.60;60.70;;;;;;5011408;28;20030;-65
2021/04/22 00:47:05;;;;;;;6.30;1.63;;;15.60;60.20;;;;;;5011747;28;20037;-65
2021/04/22 00:49:31;;;;;;;5.97;1.80;;;15.50;60.20;;;;;;5011599;28;20030;-65
2021/04/22 00:51:57;;;;;;;7.07;1.60;;;15.60;60.30;;;;;;5012900;28;20080;-66
2021/04/22 00:54:22;;;;;;;6.45;1.90;;;15.60;60.20;;;;;;5027805;28;20430;-65
2021/04/22 00:56:48;;;;;;;5.70;1.63;;;15.50;60.10;;;;;;5014489;28;20026;-65
2021/04/22 00:59:14;;;;;;;5.03;1.40;;;15.60;60.30;;;;;;5024282;28;20447;-66
2021/04/22 01:01:39;;;;;;;5.72;1.50;;;15.50;60.10;;;;;;5016118;28;20041;-66
2021/04/22 01:04:05;;;;;;;6.20;1.35;;;15.50;60.20;;;;;;5009507;28;20030;-67
2021/04/22 01:06:31;;;;;;;7.65;1.70;;;15.50;60.30;;;;;;5010656;28;20060;-64
2021/04/22 01:09:01;;;;;;;5.20;1.73;;;15.50;60.30;;;;;;5002939;28;20030;-67
2021/04/22 01:11:30;;;;;;;6.70;1.83;;;15.50;60.70;;;;;;5010932;28;20567;-66
2021/04/22 01:13:56;;;;;;;5.60;1.55;;;15.50;60.20;;;;;;5012389;28;20072;-67
2021/04/22 01:16:21;;;;;;;4.68;1.50;;;15.50;60.10;;;;;;5010191;28;20033;-65
2021/04/22 01:18:47;;;;;;;5.18;1.58;;;15.50;60.20;;;;;;5011599;28;20037;-67
2021/04/22 01:21:26;;;;;;;5.15;1.58;;;15.50;60.30;;;;;;4997375;28;20385;-66
2021/04/22 01:23:53;;;;;;;5.13;1.73;;;15.50;60.20;;;;;;5007661;28;20057;-68
2021/04/22 01:26:21;;;;;;;5.70;1.55;;;15.50;60.20;;;;;;5012762;28;20037;-65
2021/04/22 01:28:47;;;;;;;5.65;1.30;;;15.50;60.10;;;;;;5009840;28;20032;-66
2021/04/22 01:31:13;;;;;;;5.82;1.60;;;15.50;60.10;;;;;;5012223;28;20037;-65
2021/04/22 01:33:39;;;;;;;5.32;1.50;;;15.50;60.00;;;;;;5011819;28;20034;-66
2021/04/22 01:36:06;;;;;;;5.72;1.58;;;15.50;60.10;;;;;;5012320;28;20045;-66
2021/04/22 01:38:31;;;;;;;6.63;1.90;;;15.50;60.10;;;;;;5012288;28;20025;-67
2021/04/22 01:40:59;;;;;;;6.20;1.80;;;15.50;60.00;;;;;;5012603;28;20029;-65
2021/04/22 01:43:25;;;;;;;5.65;1.67;;;15.50;60.00;;;;;;5011622;28;20105;-65
2021/04/22 01:45:51;;;;;;;6.70;1.92;;;15.50;60.10;;;;;;5010765;28;20447;-66
2021/04/22 01:48:17;;;;;;;5.97;1.85;;;15.50;60.00;;;;;;5010672;28;20024;-66
2021/04/22 01:50:42;;;;;;;6.35;1.98;;;15.50;60.00;;;;;;5011891;28;20068;-65
2021/04/22 01:53:09;;;;;;;4.53;1.40;;;15.50;60.00;;;;;;5011596;28;20475;-65
2021/04/22 01:55:39;;;;;;;5.65;1.50;;;15.50;59.90;;;;;;5010787;28;20128;-65
2021/04/22 01:58:07;;;;;;;4.53;1.58;;;15.50;59.90;;;;;;5014794;28;20022;-66
2021/04/22 02:00:39;;;;;;;5.63;1.77;;;15.50;59.90;;;;;;5018960;28;20038;-66
2021/04/22 02:03:08;;;;;;;5.07;1.90;;;15.50;60.00;;;;;;5010316;28;20032;-66
2021/04/22 02:05:35;;;;;;;4.65;1.60;;;15.50;60.00;;;;;;5011586;28;20463;-65
2021/04/22 02:08:02;;;;;;;5.05;1.45;;;15.50;60.00;;;;;;5012034;28;20026;-65
2021/04/22 02:10:27;;;;;;;6.70;1.70;;;15.50;59.90;;;;;;5011417;28;20105;-65
2021/04/22 02:12:53;;;;;;;6.13;1.80;;;15.50;59.90;;;;;;5010075;28;20154;-65
2021/04/22 02:15:26;;;;;;;5.90;1.92;;;15.50;59.80;;;;;;5010428;28;20105;-65
2021/04/22 02:17:52;;;;;;;5.80;1.60;;;15.50;59.80;;;;;;5010113;28;20129;-65
2021/04/22 02:20:18;;;;;;;6.18;1.85;;;15.50;59.70;;;;;;5025809;28;20103;-66
2021/04/22 02:22:44;;;;;;;4.90;1.63;;;15.50;59.80;;;;;;5027881;28;20022;-65
2021/04/22 02:25:12;;;;;;;4.82;1.70;;;15.50;59.70;;;;;;5033384;23;20137;-65
2021/04/22 02:27:39;;;;;;;5.97;2.17;;;15.40;59.70;;;;;;5011448;28;20072;-65
2021/04/22 02:30:26;;;;;;;4.70;1.65;;;15.50;59.70;;;;;;5011250;28;20037;-65
2021/04/22 02:32:52;;;;;;;5.55;2.10;;;15.40;59.70;;;;;;5010741;28;20040;-66
2021/04/22 02:35:24;;;;;;;4.05;1.52;;;15.50;59.80;;;;;;5011279;28;20069;-66
2021/04/22 02:37:50;;;;;;;5.68;1.90;;;15.50;59.80;;;;;;5010269;28;20538;-65
2021/04/22 02:40:18;;;;;;;6.18;1.83;;;15.40;59.80;;;;;;5013749;28;20030;-65
2021/04/22 02:42:45;;;;;;;5.50;1.85;;;15.40;59.80;;;;;;5014205;28;20037;-63
2021/04/22 02:45:18;;;;;;;5.35;1.88;;;15.40;59.70;;;;;;5014074;28;20022;-66
2021/04/22 02:47:44;;;;;;;6.18;1.92;;;15.40;59.80;;;;;;5015800;28;20072;-65
2021/04/22 02:50:13;;;;;;;7.35;2.20;;;15.40;59.70;;;;;;5015606;28;20029;-65
2021/04/22 02:52:38;;;;;;;5.55;1.83;;;15.40;59.80;;;;;;5014829;28;20074;-65
2021/04/22 02:55:05;;;;;;;7.35;1.98;;;15.40;59.70;;;;;;5014304;28;20491;-65
2021/04/22 02:57:31;;;;;;;5.80;1.70;;;15.40;59.70;;;;;;5014140;28;20032;-65
2021/04/22 02:59:57;;;;;;;5.05;1.77;;;15.40;59.80;;;;;;5013464;28;20034;-66
2021/04/22 03:02:22;;;;;;;6.10;1.67;;;15.40;59.80;;;;;;5014248;28;20054;-64
2021/04/22 03:04:48;;;;;;;5.93;2.00;;;15.40;59.70;;;;;;5014337;28;20030;-65
2021/04/22 03:07:14;;;;;;;4.78;1.73;;;15.40;59.80;;;;;;5015469;28;20034;-65
2021/04/22 03:09:39;;;;;;;8.05;1.90;;;15.40;59.90;;;;;;5013845;28;20030;-65
2021/04/22 03:12:06;;;;;;;6.32;2.28;;;15.40;59.90;;;;;;5013520;28;20036;-66
2021/04/22 03:14:31;;;;;;;4.18;1.50;;;15.40;59.80;;;;;;5014147;28;20064;-66
2021/04/22 03:16:57;;;;;;;6.43;1.83;;;15.40;59.80;;;;;;5013573;28;20057;-66
2021/04/22 03:19:22;;;;;;;6.57;2.13;;;15.40;59.70;;;;;;5013540;28;20026;-65
2021/04/22 03:21:49;;;;;;;5.72;1.67;;;15.40;59.70;;;;;;5013843;28;20125;-66
2021/04/22 03:24:15;;;;;;;4.65;1.60;;;15.40;59.80;;;;;;5014201;28;20368;-64
2021/04/22 03:26:40;;;;;;;7.07;1.85;;;15.40;59.70;;;;;;5007625;28;20029;-66
2021/04/22 03:29:06;;;;;;;5.45;1.88;;;15.40;59.80;;;;;;5014812;28;20026;-65
2021/04/22 03:31:31;;;;;;;7.03;1.95;;;15.40;60.00;;;;;;5013082;28;20022;-65
2021/04/22 03:33:57;;;;;;;5.20;1.83;;;15.40;60.00;;;;;;5014258;28;20084;-66
2021/04/22 03:36:22;;;;;;;6.95;2.13;;;15.40;59.90;;;;;;5014101;28;20038;-65
2021/04/22 03:38:48;;;;;;;6.60;1.80;;;15.40;59.70;;;;;;5013927;28;20041;-65
2021/04/22 03:41:13;;;;;;;5.75;1.70;;;15.40;59.60;;;;;;5014539;28;20034;-66
2021/04/22 03:43:39;;;;;;;8.02;2.00;;;15.40;60.20;;;;;;5014092;28;20037;-65
2021/04/22 03:46:05;;;;;;;5.05;2.03;;;15.40;59.70;;;;;;5012682;28;20029;-66
2021/04/22 03:48:30;;;;;;;6.65;2.00;;;15.40;59.70;;;;;;5014363;28;20022;-66
2021/04/22 03:50:56;;;;;;;5.70;1.75;;;15.40;59.80;;;;;;5013189;28;20034;-65
2021/04/22 03:53:21;;;;;;;5.13;1.60;;;15.40;59.80;;;;;;5013634;28;20030;-66
2021/04/22 03:55:47;;;;;;;7.75;1.92;;;15.30;60.00;;;;;;5012393;28;20049;-65
2021/04/22 03:58:13;;;;;;;7.60;1.88;;;15.30;60.00;;;;;;5012796;28;20443;-65
2021/04/22 04:00:39;;;;;;;6.78;1.98;;;15.30;59.80;;;;;;5012394;28;20040;-66
2021/04/22 04:03:04;;;;;;;7.88;2.08;;;15.30;59.80;;;;;;5013655;28;20097;-65
2021/04/22 04:05:30;;;;;;;6.80;2.17;;;15.30;59.80;;;;;;5013476;28;20030;-67
2021/04/22 04:07:56;;;;;;;7.13;2.00;;;15.30;59.80;;;;;;5014049;28;20026;-66
2021/04/22 04:10:21;;;;;;;6.63;2.00;;;15.30;59.70;;;;;;5012089;28;20030;-65
2021/04/22 04:12:47;;;;;;;8.98;2.10;;;15.30;59.70;;;;;;5011921;28;20026;-66
2021/04/22 04:15:13;;;;;;;5.93;1.67;;;15.30;59.80;;;;;;5013297;28;20029;-65
2021/04/22 04:17:39;;;;;;;6.72;2.15;;;15.30;59.80;;;;;;5014124;28;20032;-66
2021/04/22 04:20:07;;;;;;;8.05;2.15;;;15.30;59.70;;;;;;5013713;28;20407;-66
2021/04/22 04:22:33;;;;;;;7.95;2.10;;;15.20;59.80;;;;;;5012180;28;20030;-65
2021/04/22 04:24:58;;;;;;;7.32;1.90;;;15.30;59.90;;;;;;5012290;28;20127;-66
2021/04/22 04:27:24;;;;;;;7.07;2.05;;;15.30;59.90;;;;;;5013630;28;20052;-66
2021/04/22 04:29:49;;;;;;;5.55;1.80;;;15.30;59.90;;;;;;5012883;28;20498;-65
2021/04/22 04:32:15;;;;;;;7.00;2.10;;;15.20;59.80;;;;;;5028102;28;20045;-65
2021/04/22 04:34:40;;;;;;;4.90;1.92;;;15.30;59.90;;;;;;5027814;28;20021;-66
2021/04/22 04:37:06;;;;;;;5.95;1.80;;;15.30;59.80;;;;;;5013453;28;20480;-65
2021/04/22 04:39:32;;;;;;;6.78;1.75;;;15.30;59.90;;;;;;5010444;28;20443;-65
2021/04/22 04:41:57;;;;;;;9.07;2.25;;;15.30;59.90;;;;;;5013096;28;20041;-66
2021/04/22 04:44:23;;;;;;;4.97;1.90;;;15.30;59.90;;;;;;5004992;28;20037;-64
2021/04/22 04:46:48;;;;;;;5.75;1.92;;;15.40;59.80;;;;;;4997799;28;20693;-66
2021/04/22 04:49:14;;;;;;;10.02;2.20;;;15.30;59.70;;;;;;4997731;28;20546;-65
2021/04/22 04:51:39;;;;;;;5.95;2.20;;;15.30;59.70;;;;;;5012556;28;20030;-65
2021/04/22 04:54:05;;;;;;;7.60;2.10;;;15.30;59.70;;;;;;5009352;28;20372;-66
2021/04/22 04:56:31;;;;;;;7.53;2.47;;;15.30;59.70;;;;;;5005374;28;20030;-65
2021/04/22 04:58:57;;;;;;;5.75;1.90;;;15.30;59.60;;;;;;5011642;28;20507;-65
2021/04/22 05:01:22;;;;;;;6.82;1.95;;;15.30;59.70;;;;;;5012033;28;20033;-69
2021/04/22 05:03:48;;;;;;;8.95;2.40;;;15.40;59.80;;;;;;5011940;28;20050;-66
2021/04/22 05:06:13;;;;;;;11.85;2.15;;;15.50;59.80;;;;;;5009090;28;20065;-67
2021/04/22 05:08:39;;;;;;;15.93;3.50;;;15.50;59.60;;;;;;4997556;28;20361;-68
2021/04/22 05:11:05;;;;;;;13.85;4.05;;;15.50;59.70;;;;;;5000192;28;20033;-68
2021/04/22 05:13:30;;;;;;;19.92;3.25;;;15.60;60.00;;;;;;5006302;28;20025;-68
2021/04/22 05:15:58;;;;;;;25.70;3.45;;;15.70;60.50;;;;;;5003954;28;20033;-66
2021/04/22 05:18:23;;;;;;;16.40;5.00;;;15.90;61.40;;;;;;5001265;28;20018;-64
2021/04/22 05:20:49;;;;;;;18.45;5.35;;;16.10;60.10;;;;;;5000944;28;20033;-69
2021/04/22 05:23:14;;;;;;;14.88;4.47;;;16.40;60.20;;;;;;5001560;28;20026;-68
2021/04/22 05:25:40;;;;;;;16.75;4.20;;;16.70;59.20;;;;;;5005855;28;20037;-68
2021/04/22 05:28:06;;;;;;;18.90;3.80;;;17.10;57.70;;;;;;5008725;28;20403;-68
2021/04/22 05:30:31;;;;;;;15.88;4.32;;;17.40;56.70;;;;;;5009338;28;20048;-67
2021/04/22 05:32:57;;;;;;;29.13;5.60;;;17.50;56.20;;;;;;5011222;28;20117;-69
2021/04/22 05:35:22;;;;;;;17.90;3.67;;;17.60;55.80;;;;;;5011612;28;20054;-73
2021/04/22 05:37:48;;;;;;;12.27;3.38;;;17.50;55.60;;;;;;5012487;28;20040;-69
2021/04/22 05:40:14;;;;;;;12.13;3.50;;;17.40;55.60;;;;;;5012407;28;20026;-69
2021/04/22 05:42:39;;;;;;;18.55;3.20;;;17.30;55.80;;;;;;5010939;28;20036;-65
2021/04/22 05:45:06;;;;;;;13.40;3.13;;;17.30;55.90;;;;;;5006042;28;20104;-65
2021/04/22 05:47:31;;;;;;;17.85;3.42;;;17.10;55.70;;;;;;5006344;28;20034;-65
2021/04/22 05:49:57;;;;;;;16.42;3.50;;;17.00;56.10;;;;;;5021348;28;20034;-66
2021/04/22 05:52:23;;;;;;;9.63;2.83;;;16.90;56.20;;;;;;5005202;28;20050;-63
2021/04/22 05:54:48;;;;;;;15.57;3.85;;;16.90;56.30;;;;;;5002579;28;20075;-68
2021/04/22 05:57:14;;;;;;;16.42;3.85;;;17.00;56.30;;;;;;5003380;28;20562;-65
2021/04/22 05:59:39;;;;;;;19.65;4.35;;;17.10;56.40;;;;;;5004062;28;20029;-61
2021/04/22 06:02:05;;;;;;;21.35;3.17;;;17.10;56.40;;;;;;5005373;28;20483;-65
2021/04/22 06:04:30;;;;;;;14.90;3.50;;;17.20;55.90;;;;;;4997504;28;20499;-66
2021/04/22 06:06:56;;;;;;;15.68;3.55;;;17.30;55.70;;;;;;5006125;28;20081;-66
2021/04/22 06:09:21;;;;;;;14.02;4.10;;;17.30;55.80;;;;;;5005690;28;20048;-65
2021/04/22 06:11:47;;;;;;;15.90;3.50;;;17.50;55.40;;;;;;5004304;28;20034;-66
2021/04/22 06:14:12;;;;;;;12.88;2.95;;;17.80;54.70;;;;;;5002759;28;20026;-65
2021/04/22 06:16:38;;;;;;;14.38;2.88;;;18.30;53.40;;;;;;5005654;28;20026;-65
2021/04/22 06:19:05;;;;;;;16.25;3.25;;;18.60;52.40;;;;;;5020717;28;20056;-64
2021/04/22 06:21:30;;;;;;;12.57;3.08;;;18.40;52.60;;;;;;5020612;28;20029;-66
2021/04/22 06:23:56;;;;;;;11.20;3.03;;;18.20;53.00;;;;;;5004875;28;20025;-65
2021/04/22 06:26:23;;;;;;;11.05;2.90;;;18.80;52.10;;;;;;5004026;28;20122;-66
2021/04/22 06:28:52;;;;;;;8.95;2.80;;;19.00;51.20;;;;;;5020331;28;20030;-65
2021/04/22 06:31:18;;;;;;;11.15;2.67;;;19.10;50.80;;;;;;5005720;28;20539;-66
2021/04/22 06:33:43;;;;;;;9.32;2.60;;;19.30;50.20;;;;;;5005723;28;20101;-65
2021/04/22 06:36:09;;;;;;;10.65;3.67;;;19.20;50.30;;;;;;5004235;28;20030;-65
2021/04/22 06:38:35;;;;;;;11.05;2.92;;;19.60;49.70;;;;;;5005291;28;20026;-66
2021/04/22 06:41:01;;;;;;;12.38;2.60;;;19.80;49.20;;;;;;5005607;28;20123;-65
2021/04/22 06:43:26;;;;;;;10.00;2.70;;;20.20;48.40;;;;;;5004910;28;20093;-66
2021/04/22 06:45:52;;;;;;;9.07;2.67;;;20.10;48.20;;;;;;5005250;28;20074;-67
2021/04/22 06:48:17;;;;;;;9.75;2.70;;;19.70;48.90;;;;;;5005615;28;20158;-65
2021/04/22 06:50:44;;;;;;;10.65;3.05;;;19.40;49.50;;;;;;5004038;28;20030;-66
2021/04/22 06:53:10;;;;;;;7.85;2.42;;;19.20;50.00;;;;;;5004013;28;20479;-65
2021/04/22 06:55:36;;;;;;;8.10;2.60;;;19.10;50.40;;;;;;5003748;28;20034;-65
2021/04/22 06:58:03;;;;;;;8.52;2.75;;;19.10;50.20;;;;;;5005763;28;20041;-66
2021/04/22 07:00:32;;;;;;;10.43;2.75;;;19.10;50.20;;;;;;5020699;28;20034;-65
2021/04/22 07:02:58;;;;;;;8.60;2.47;;;19.20;50.40;;;;;;5005540;28;20030;-67
2021/04/22 07:05:23;;;;;;;7.65;2.40;;;19.20;50.30;;;;;;5003668;28;20148;-65
2021/04/22 07:07:49;;;;;;;12.15;2.80;;;19.10;50.20;;;;;;5005537;28;20041;-65
2021/04/22 07:10:15;;;;;;;6.88;2.13;;;19.20;50.40;;;;;;5005409;28;20029;-65
2021/04/22 07:12:41;;;;;;;8.15;2.58;;;19.20;50.30;;;;;;5004079;28;20033;-66
2021/04/22 07:15:09;;;;;;;11.32;2.80;;;19.10;50.40;;;;;;5003518;28;20030;-66
2021/04/22 07:17:35;;;;;;;8.02;2.53;;;19.20;50.30;;;;;;5003862;28;20117;-62
2021/04/22 07:20:01;;;;;;;11.68;3.13;;;19.30;49.90;;;;;;4998590;28;20037;-66
2021/04/22 07:22:26;;;;;;;7.80;2.58;;;19.30;50.00;;;;;;4999850;28;20046;-68
2021/04/22 07:24:55;;;;;;;9.07;2.88;;;19.30;50.10;;;;;;4988218;28;20029;-68
2021/04/22 07:27:20;;;;;;;7.38;2.38;;;19.30;50.20;;;;;;5005434;28;20611;-68
2021/04/22 07:29:47;;;;;;;11.13;2.65;;;19.90;49.40;;;;;;5005504;28;20105;-67
2021/04/22 07:32:13;;;;;;;8.40;2.63;;;19.90;49.20;;;;;;4999628;28;20398;-65
2021/04/22 07:34:39;;;;;;;8.10;2.10;;;19.70;49.40;;;;;;5005112;28;20022;-67
2021/04/22 07:37:05;;;;;;;7.57;2.70;;;19.70;49.60;;;;;;5006446;28;20108;-67
2021/04/22 07:39:30;;;;;;;8.85;2.22;;;20.60;48.40;;;;;;5007682;28;20037;-66
2021/04/22 07:41:56;;;;;;;10.98;2.45;;;20.80;47.30;;;;;;5007603;28;20040;-67
2021/04/22 07:44:22;;;;;;;8.45;2.60;;;20.40;47.90;;;;;;5017812;28;20033;-67
2021/04/22 07:46:48;;;;;;;8.20;2.13;;;20.50;47.70;;;;;;5010064;28;20045;-65
2021/04/22 07:49:13;;;;;;;8.43;2.05;;;20.20;48.40;;;;;;5024292;28;20030;-66
2021/04/22 07:51:39;;;;;;;8.88;2.40;;;20.00;48.90;;;;;;5006778;28;20026;-67
2021/04/22 07:54:04;;;;;;;12.02;3.08;;;19.90;49.30;;;;;;5006544;28;20038;-62
2021/04/22 07:56:30;;;;;;;12.55;3.20;;;19.80;48.80;;;;;;5007359;28;20033;-65
2021/04/22 07:58:56;;;;;;;11.48;4.00;;;19.80;49.20;;;;;;5006523;28;20483;-65
2021/04/22 08:01:21;;;;;;;13.38;4.43;;;19.70;49.30;;;;;;5007118;28;20053;-66
2021/04/22 08:03:47;;;;;;;9.73;3.65;;;19.80;49.30;;;;;;5007739;28;20030;-66
2021/04/22 08:06:13;;;;;;;9.48;3.40;;;20.00;49.20;;;;;;5008375;28;20040;-66
2021/04/22 08:08:38;;;;;;;12.75;3.60;;;20.20;48.50;;;;;;5006173;28;20087;-66
2021/04/22 08:11:05;;;;;;;8.10;2.53;;;20.60;48.00;;;;;;5007012;28;20446;-65
2021/04/22 08:13:31;;;;;;;10.68;2.95;;;22.00;45.80;;;;;;5006364;28;21152;-65
2021/04/22 08:15:57;;;;;;;11.95;3.25;;;23.00;43.80;;;;;;5007734;28;20030;-66
2021/04/22 08:18:28;;;;;;;14.45;3.25;;;23.80;42.30;;;;;;5007312;28;20037;-64
2021/04/22 08:20:56;;;;;;;18.10;3.28;;;24.40;41.20;;;;;;5005881;28;20362;-68
2021/04/22 08:23:24;;;;;;;14.18;3.10;;;24.60;40.60;;;;;;5005610;28;20044;-64
2021/04/22 08:25:54;;;;;;;19.13;3.63;;;23.40;42.30;;;;;;5007532;28;20038;-65
2021/04/22 08:28:20;;;;;;;12.25;2.90;;;22.40;44.10;;;;;;5007072;28;20033;-68
2021/04/22 08:30:54;;;;;;;13.55;3.28;;;21.90;45.80;;;;;;5007070;28;20108;-66
2021/04/22 08:33:21;;;;;;;12.85;3.25;;;21.60;46.90;;;;;;5005060;28;20503;-67
2021/04/22 08:35:47;;;;;;;10.60;3.25;;;21.30;47.60;;;;;;5007311;28;20041;-66
2021/04/22 08:38:13;;;;;;;11.63;2.72;;;21.50;47.70;;;;;;5006688;28;20594;-68
2021/04/22 08:40:40;;;;;;;11.30;3.22;;;21.40;47.70;;;;;;5007429;28;20110;-67
2021/04/22 08:43:06;;;;;;;10.70;2.72;;;21.50;47.60;;;;;;5006408;28;20045;-68
2021/04/22 08:45:32;;;;;;;8.93;2.67;;;22.60;46.40;;;;;;5004279;28;20036;-64
2021/04/22 08:48:00;;;;;;;11.07;3.08;;;23.20;44.70;;;;;;5006472;28;20664;-64
2021/04/22 08:50:28;;;;;;;8.00;2.47;;;23.50;43.90;;;;;;5002844;28;20026;-67
2021/04/22 08:52:56;;;;;;;11.27;2.70;;;22.80;44.20;;;;;;4998466;28;20029;-68
2021/04/22 08:55:25;;;;;;;18.90;3.38;;;23.30;44.30;;;;;;5006938;28;20037;-67
2021/04/22 08:57:51;;;;;;;10.52;2.60;;;25.00;41.90;;;;;;4998689;28;20022;-66
2021/04/22 09:00:20;;;;;;;10.20;2.80;;;25.20;40.40;;;;;;5003747;28;20030;-68
2021/04/22 09:02:46;;;;;;;9.00;2.70;;;24.80;40.30;;;;;;4999935;28;20026;-66
2021/04/22 09:05:15;;;;;;;12.43;2.63;;;24.10;41.40;;;;;;5007119;28;20030;-66
2021/04/22 09:07:40;;;;;;;22.60;3.65;;;24.30;41.70;;;;;;5015288;28;20191;-65
2021/04/22 09:10:09;;;;;;;8.13;2.60;;;23.20;43.20;;;;;;5012114;28;20507;-69
2021/04/22 09:12:34;;;;;;;12.20;2.78;;;22.60;44.40;;;;;;4996312;28;20037;-66
2021/04/22 09:15:08;;;;;;;12.40;2.65;;;22.80;44.90;;;;;;4996380;28;20403;-65
2021/04/22 09:17:34;;;;;;;11.98;2.72;;;24.70;42.10;;;;;;5001990;28;20026;-66
2021/04/22 09:19:59;;;;;;;13.05;2.78;;;25.70;39.70;;;;;;4994068;28;20120;-66
2021/04/22 09:22:42;;;;;;;10.90;2.33;;;25.70;39.40;;;;;;4995962;28;20037;-68
2021/04/22 09:25:14;;;;;;;13.43;2.58;;;25.10;39.20;;;;;;4987274;28;20034;-66
2021/04/22 09:27:39;;;;;;;;;;;25.60;39.80;;;;;;4999270;28;20033;-66
2021/04/22 09:30:06;;;;;;;7.93;2.30;;;24.80;39.40;;;;;;4993972;28;19940;-66
2021/04/22 09:32:32;;;;;;;9.07;2.40;;;23.60;41.70;;;;;;4999437;28;20105;-67
2021/04/22 09:35:14;;;;;;;9.30;2.25;;;22.80;43.30;;;;;;5002022;28;20061;-67
2021/04/22 09:37:46;;;;;;;11.50;2.50;;;22.20;44.50;;;;;;5001358;28;20053;-67
2021/04/22 09:40:35;;;;;;;9.38;2.40;;;21.80;45.40;;;;;;5015363;28;20049;-66
2021/04/22 09:43:03;;;;;;;8.93;2.53;;;21.70;46.00;;;;;;5006999;28;20037;-66
2021/04/22 09:45:31;;;;;;;9.88;2.35;;;21.90;45.60;;;;;;5004902;28;20033;-65
2021/04/22 09:47:57;;;;;;;11.73;2.38;;;22.20;44.80;;;;;;5005517;28;20554;-67
2021/04/22 09:50:26;;;;;;;8.75;1.95;;;22.30;45.20;;;;;;4986700;28;20034;-66
2021/04/22 09:52:55;;;;;;;8.98;2.30;;;22.40;44.60;;;;;;4986474;28;20034;-66
2021/04/22 09:55:29;;;;;;;8.60;2.20;;;22.20;44.70;;;;;;5005535;28;20044;-67
2021/04/22 09:57:55;;;;;;;8.82;2.28;;;22.90;43.90;;;;;;5005266;28;20021;-65
2021/04/22 10:00:28;;;;;;;9.45;2.10;;;22.80;43.80;;;;;;5004694;28;20061;-67
2021/04/22 10:02:56;;;;;;;10.93;2.53;;;24.00;41.80;;;;;;5020571;28;20088;-65
2021/04/22 10:05:33;;;;;;;8.32;2.13;;;23.10;42.50;;;;;;5004308;28;20129;-64
2021/04/22 10:08:16;;;;;;;11.02;2.45;;;24.00;42.40;;;;;;5005063;28;20092;-65
2021/04/22 10:11:02;;;;;;;9.35;2.10;;;23.90;41.10;;;;;;5006388;28;20080;-65
2021/04/22 10:13:30;;;;;;;9.40;2.00;;;23.10;42.50;;;;;;5004570;28;20037;-65
2021/04/22 10:15:58;;;;;;;11.63;2.22;;;22.40;43.60;;;;;;5003182;28;20404;-65
2021/04/22 10:18:45;;;;;;;8.10;1.88;;;22.20;44.50;;;;;;5004549;28;20084;-66
2021/04/22 10:21:12;;;;;;;10.95;2.28;;;23.60;42.80;;;;;;4991909;28;20411;-66
2021/04/22 10:23:38;;;;;;;12.50;2.05;;;24.10;41.00;;;;;;5010609;28;20191;-67
2021/04/22 10:26:04;;;;;;;8.73;2.10;;;24.20;41.40;;;;;;5005420;28;20038;-65
2021/04/22 10:28:30;;;;;;;11.75;2.50;;;24.40;40.70;;;;;;5004251;28;20035;-66
2021/04/22 10:30:57;;;;;;;12.48;2.35;;;23.80;41.10;;;;;;5007605;28;20100;-65
2021/04/22 10:33:26;;;;;;;10.23;2.47;;;23.10;42.20;;;;;;5010721;28;20057;-66
2021/04/22 10:35:53;;;;;;;9.50;2.22;;;22.80;42.90;;;;;;5010444;28;20072;-66
2021/04/22 10:38:20;;;;;;;10.00;2.38;;;24.20;42.10;;;;;;5011416;28;20018;-65
2021/04/22 10:40:49;;;;;;;8.90;2.47;;;25.70;39.00;;;;;;4992144;28;20038;-67
2021/04/22 10:43:18;;;;;;;9.88;2.45;;;26.30;37.80;;;;;;5008985;28;20025;-66
2021/04/22 10:45:45;;;;;;;9.00;2.17;;;24.50;39.40;;;;;;5010514;28;21691;-65
2021/04/22 10:48:10;;;;;;;9.98;2.08;;;23.30;41.90;;;;;;5010149;28;20084;-67
2021/04/22 10:50:39;;;;;;;9.50;2.22;;;22.60;43.20;;;;;;5011594;28;20029;-63
2021/04/22 10:53:11;;;;;;;8.50;1.90;;;22.40;43.90;;;;;;5008975;28;20026;-66
2021/04/22 10:55:39;;;;;;;7.10;1.98;;;22.50;44.50;;;;;;5011246;28;20018;-67
2021/04/22 10:58:26;;;;;;;6.70;1.73;;;23.20;43.40;;;;;;5011557;28;20026;-66
2021/04/22 11:01:06;;;;;;;6.65;1.92;;;24.10;41.70;;;;;;5009219;28;20116;-65
2021/04/22 11:03:44;;;;;;;6.77;2.20;;;25.00;40.00;;;;;;5012370;28;20439;-66
2021/04/22 11:06:12;;;;;;;6.88;1.83;;;23.90;40.90;;;;;;5016421;28;20307;-67
2021/04/22 11:08:41;;;;;;;7.22;2.25;;;25.20;40.00;;;;;;5022853;28;20026;-66
2021/04/22 11:11:17;;;;;;;8.52;2.05;;;26.20;38.20;;;;;;5006483;28;20121;-66
2021/04/22 11:13:43;;;;;;;6.72;1.92;;;25.40;38.10;;;;;;5005604;28;20656;-66
2021/04/22 11:16:09;;;;;;;18.73;2.67;;;24.30;40.20;;;;;;5012166;28;20071;-66
2021/04/22 11:18:38;;;;;;;13.73;2.20;;;23.60;41.60;;;;;;5012710;28;20105;-65
2021/04/22 11:21:06;;;;;;;7.28;1.85;;;23.50;42.00;;;;;;5012590;28;20121;-67
2021/04/22 11:23:41;;;;;;;7.72;1.90;;;24.60;40.70;;;;;;5011842;28;20029;-66
2021/04/22 11:26:19;;;;;;;7.82;1.73;;;26.00;38.50;;;;;;5008064;28;20038;-67
2021/04/22 11:28:45;;;;;;;8.85;2.22;;;24.10;40.10;;;;;;5013824;28;20084;-65
2021/04/22 11:31:20;;;;;;;9.90;2.25;;;23.10;42.10;;;;;;5013466;28;20455;-66
2021/04/22 11:33:46;;;;;;;5.55;1.80;;;24.30;40.90;;;;;;5011009;28;20018;-66
2021/04/22 11:36:23;;;;;;;5.53;1.83;;;24.90;39.40;;;;;;5011747;28;20156;-66
2021/04/22 11:38:50;;;;;;;8.20;2.00;;;24.90;39.50;;;;;;5010296;28;20072;-67
2021/04/22 11:41:16;;;;;;;7.82;2.22;;;24.80;39.80;;;;;;5013091;28;20029;-67
2021/04/22 11:43:42;;;;;;;8.32;2.05;;;25.40;39.00;;;;;;5011714;28;20026;-67
2021/04/22 11:46:07;;;;;;;10.63;1.95;;;25.40;38.50;;;;;;5040039;22;20080;-68
2021/04/22 11:48:39;;;;;;;11.05;2.10;;;25.40;38.30;;;;;;5015323;28;20503;-67
2021/04/22 11:51:05;;;;;;;;;;;24.30;40.50;;;;;;5029963;28;20048;-68
2021/04/22 11:53:40;;;;;;;7.90;2.20;;;23.80;40.50;;;;;;5012828;28;19905;-68
2021/04/22 11:56:07;;;;;;;8.52;2.15;;;23.70;41.40;;;;;;5019088;28;20110;-67
2021/04/22 11:58:38;;;;;;;7.18;2.00;;;23.10;42.30;;;;;;5014535;28;20022;-67
2021/04/22 12:01:07;;;;;;;7.95;2.00;;;22.90;42.80;;;;;;5007962;28;20109;-68
2021/04/22 12:03:35;;;;;;;7.10;1.92;;;22.70;42.60;;;;;;4994561;28;20031;-68
2021/04/22 12:06:06;;;;;;;5.55;1.80;;;22.50;42.90;;;;;;4999985;28;20041;-68
2021/04/22 12:08:32;;;;;;;6.47;2.20;;;22.20;43.20;;;;;;5013077;28;20109;-67
2021/04/22 12:10:59;;;;;;;7.22;1.90;;;22.00;43.70;;;;;;5013761;28;20371;-68
2021/04/22 12:13:27;;;;;;;6.95;1.90;;;21.90;44.10;;;;;;5013189;28;20446;-67
2021/04/22 12:15:58;;;;;;;7.07;2.00;;;21.90;44.10;;;;;;5016331;28;20018;-67
2021/04/22 12:18:35;;;;;;;6.10;1.90;;;22.00;44.00;;;;;;5017481;28;20092;-68
2021/04/22 12:21:18;;;;;;;6.75;1.92;;;21.90;43.90;;;;;;5013081;28;20491;-68
2021/04/22 12:23:51;;;;;;;6.07;2.40;;;21.80;44.20;;;;;;5028952;28;20084;-67
2021/04/22 12:26:20;;;;;;;5.43;1.50;;;21.60;44.40;;;;;;5030568;28;20091;-67
2021/04/22 12:29:05;;;;;;;5.63;2.42;;;21.50;44.60;;;;;;5032425;28;20021;-67
2021/04/22 12:31:46;;;;;;;5.25;1.80;;;21.50;44.80;;;;;;5015253;28;20029;-68
2021/04/22 12:34:15;;;;;;;7.28;2.03;;;21.50;44.60;;;;;;5015264;28;20030;-68
2021/04/22 12:36:58;;;;;;;5.07;1.70;;;21.50;44.80;;;;;;5013328;28;20026;-68
2021/04/22 12:40:10;;;;;;;10.88;2.22;;;21.40;45.00;;;;;;5006360;28;20033;-72
2021/04/22 12:42:36;;;;;;;17.30;2.28;;;21.50;44.50;;;;;;5007794;28;20034;-68
2021/04/22 12:45:15;;;;;;;7.47;1.80;;;21.40;44.70;;;;;;5012848;28;20037;-67
2021/04/22 12:48:01;;;;;;;6.95;1.67;;;21.20;44.80;;;;;;5012252;28;20071;-67